createdAt,value
2018-09-15T00:02:16.439Z,18.68
2018-09-15T00:04:44.232Z,18.66
2018-09-15T00:07:11.967Z,18.64
2018-09-15T00:09:39.644Z,18.61
2018-09-15T00:12:07.412Z,18.59
2018-09-15T00:14:35.129Z,18.58
2018-09-15T00:17:02.839Z,18.57
2018-09-15T00:19:30.591Z,18.55
2018-09-15T00:21:58.273Z,18.49
2018-09-15T00:24:26.186Z,18.43
2018-09-15T00:26:54.065Z,18.43
2018-09-15T00:29:21.744Z,18.43
2018-09-15T00:31:49.419Z,18.43
2018-09-15T00:34:17.140Z,18.42
2018-09-15T00:36:44.817Z,18.42
2018-09-15T00:39:12.546Z,18.44
2018-09-15T00:41:40.277Z,18.41
2018-09-15T00:44:08.163Z,18.38
2018-09-15T00:46:35.829Z,18.45
2018-09-15T00:49:03.786Z,18.47
2018-09-15T00:51:31.469Z,18.42
2018-09-15T00:53:59.210Z,18.38
2018-09-15T00:56:26.932Z,18.39
2018-09-15T00:58:54.642Z,18.34
2018-09-15T01:01:22.652Z,18.30
2018-09-15T01:03:50.370Z,18.24
2018-09-15T01:06:18.080Z,18.15
2018-09-15T01:08:45.801Z,18.07
2018-09-15T01:11:13.773Z,18.04
2018-09-15T01:13:41.654Z,18.00
2018-09-15T01:16:09.698Z,18.02
2018-09-15T01:18:37.419Z,18.05
2018-09-15T01:21:07.151Z,18.06
2018-09-15T01:23:55.749Z,18.03
2018-09-15T01:26:38.634Z,18.06
2018-09-15T01:29:06.567Z,18.09
2018-09-15T01:31:34.471Z,18.16
2018-09-15T01:34:02.290Z,18.23
2018-09-15T01:36:30.124Z,18.22
2018-09-15T01:38:58.223Z,18.18
2018-09-15T01:41:25.938Z,18.10
2018-09-15T01:44:00.878Z,18.05
2018-09-15T01:46:28.951Z,18.02
2018-09-15T01:48:56.628Z,17.96
2018-09-15T01:51:24.427Z,18.00
2018-09-15T01:53:52.160Z,18.02
2018-09-15T01:56:19.957Z,18.01
2018-09-15T01:58:47.966Z,18.05
2018-09-15T02:01:15.791Z,18.01
2018-09-15T02:03:43.583Z,18.00
2018-09-15T02:06:11.390Z,18.00
2018-09-15T02:08:39.091Z,18.03
2018-09-15T02:11:06.859Z,17.98
2018-09-15T02:13:34.667Z,17.98
2018-09-15T02:16:02.776Z,17.93
2018-09-15T02:18:30.551Z,17.87
2018-09-15T02:20:58.271Z,17.88
2018-09-15T02:23:26.072Z,17.85
2018-09-15T02:25:53.929Z,17.83
2018-09-15T02:28:22.257Z,17.75
2018-09-15T02:30:50.083Z,17.72
2018-09-15T02:33:17.775Z,17.65
2018-09-15T02:35:45.843Z,17.60
2018-09-15T02:38:13.855Z,17.55
2018-09-15T02:40:41.619Z,17.51
2018-09-15T02:43:09.463Z,17.46
2018-09-15T02:45:44.280Z,17.45
2018-09-15T02:48:12.003Z,17.41
2018-09-15T02:50:39.749Z,17.38
2018-09-15T02:53:07.469Z,17.32
2018-09-15T02:55:35.235Z,17.28
2018-09-15T02:58:02.979Z,17.24
2018-09-15T03:00:30.838Z,17.22
2018-09-15T03:02:58.679Z,17.18
2018-09-15T03:05:26.399Z,17.17
2018-09-15T03:07:54.163Z,17.13
2018-09-15T03:10:22.580Z,17.11
2018-09-15T03:12:50.319Z,17.12
2018-09-15T03:15:18.110Z,17.05
2018-09-15T03:17:46.125Z,16.97
2018-09-15T03:20:13.848Z,16.95
2018-09-15T03:22:41.608Z,16.93
2018-09-15T03:25:09.392Z,16.90
2018-09-15T03:27:37.086Z,16.88
2018-09-15T03:30:04.907Z,16.86
2018-09-15T03:32:32.714Z,16.84
2018-09-15T03:35:00.441Z,16.76
2018-09-15T03:37:28.280Z,16.75
2018-09-15T03:39:56.006Z,16.69
2018-09-15T03:42:23.775Z,16.68
2018-09-15T03:44:51.544Z,16.65
2018-09-15T03:47:19.487Z,16.63
2018-09-15T03:49:47.240Z,16.65
2018-09-15T03:52:15.017Z,16.61
2018-09-15T03:54:42.799Z,16.54
2018-09-15T03:57:10.546Z,16.38
2018-09-15T03:59:38.327Z,16.31
2018-09-15T04:02:06.119Z,16.22
2018-09-15T04:04:33.883Z,16.13
2018-09-15T04:07:01.647Z,16.09
2018-09-15T04:09:29.471Z,16.09
2018-09-15T04:11:57.185Z,16.10
2018-09-15T04:14:24.902Z,16.05
2018-09-15T04:16:52.670Z,15.98
2018-09-15T04:19:20.376Z,15.93
2018-09-15T04:21:48.127Z,15.91
2018-09-15T04:24:15.898Z,15.95
2018-09-15T04:26:43.665Z,15.94
2018-09-15T04:29:11.511Z,15.95
2018-09-15T04:31:39.232Z,15.92
2018-09-15T04:34:07.214Z,15.89
2018-09-15T04:36:35.001Z,15.81
2018-09-15T04:39:04.087Z,15.80
2018-09-15T04:41:31.854Z,15.81
2018-09-15T04:43:59.582Z,15.79
2018-09-15T04:46:27.317Z,15.75
2018-09-15T04:48:55.245Z,15.71
2018-09-15T04:51:23.328Z,15.68
2018-09-15T04:53:51.063Z,15.68
2018-09-15T04:56:18.774Z,15.64
2018-09-15T04:58:46.715Z,15.61
2018-09-15T05:01:14.477Z,15.58
2018-09-15T05:03:42.244Z,15.63
2018-09-15T05:06:10.197Z,15.61
2018-09-15T05:08:37.884Z,15.57
2018-09-15T05:11:05.720Z,15.54
2018-09-15T05:13:33.500Z,15.53
2018-09-15T05:16:01.203Z,15.51
2018-09-15T05:18:28.900Z,15.58
2018-09-15T05:20:56.663Z,15.54
2018-09-15T05:23:24.519Z,15.55
2018-09-15T05:25:52.394Z,15.56
2018-09-15T05:28:20.098Z,15.52
2018-09-15T05:30:47.866Z,15.48
2018-09-15T05:33:15.664Z,15.50
2018-09-15T05:35:43.382Z,15.48
2018-09-15T05:38:11.071Z,15.61
2018-09-15T05:40:38.883Z,15.56
2018-09-15T05:43:06.711Z,15.49
2018-09-15T05:45:34.419Z,15.44
2018-09-15T05:48:02.307Z,15.42
2018-09-15T05:50:30.023Z,15.38
2018-09-15T05:52:57.775Z,15.34
2018-09-15T05:55:25.535Z,15.37
2018-09-15T05:57:53.316Z,15.36
2018-09-15T06:00:21.544Z,15.39
2018-09-15T06:02:49.263Z,15.42
2018-09-15T06:05:17.044Z,15.40
2018-09-15T06:07:45.440Z,15.41
2018-09-15T06:10:13.146Z,15.39
2018-09-15T06:12:40.894Z,15.39
2018-09-15T06:15:08.792Z,15.45
2018-09-15T06:17:36.527Z,15.43
2018-09-15T06:20:04.640Z,15.50
2018-09-15T06:22:32.367Z,15.54
2018-09-15T06:25:00.090Z,15.50
2018-09-15T06:27:27.827Z,15.59
2018-09-15T06:29:55.908Z,15.61
2018-09-15T06:32:23.610Z,15.68
2018-09-15T06:34:51.339Z,15.74
2018-09-15T06:37:19.046Z,15.83
2018-09-15T06:39:46.774Z,15.86
2018-09-15T06:42:14.937Z,15.94
2018-09-15T06:44:42.646Z,15.98
2018-09-15T06:47:10.343Z,16.05
2018-09-15T06:49:38.159Z,16.10
2018-09-15T06:52:05.885Z,16.11
2018-09-15T06:54:33.668Z,16.16
2018-09-15T06:57:01.386Z,16.25
2018-09-15T06:59:29.139Z,16.37
2018-09-15T07:01:56.911Z,16.46
2018-09-15T07:04:24.635Z,16.54
2018-09-15T07:06:52.363Z,16.54
2018-09-15T07:09:20.123Z,16.57
2018-09-15T07:11:47.962Z,16.65
2018-09-15T07:14:15.712Z,16.71
2018-09-15T07:16:43.519Z,16.79
2018-09-15T07:19:11.239Z,16.97
2018-09-15T07:21:39.090Z,16.99
2018-09-15T07:24:06.923Z,17.10
2018-09-15T07:26:34.722Z,17.16
2018-09-15T07:29:02.817Z,17.23
2018-09-15T07:31:33.461Z,17.33
2018-09-15T07:34:01.178Z,17.41
2018-09-15T07:36:28.978Z,17.58
2018-09-15T07:38:56.887Z,17.69
2018-09-15T07:41:24.695Z,17.83
2018-09-15T07:43:52.844Z,17.98
2018-09-15T07:46:20.776Z,18.11
2018-09-15T07:48:48.591Z,18.21
2018-09-15T07:51:16.332Z,18.39
2018-09-15T07:53:44.171Z,18.42
2018-09-15T07:56:11.979Z,18.54
2018-09-15T07:58:39.932Z,18.70
2018-09-15T08:01:07.881Z,18.82
2018-09-15T08:03:37.031Z,19.00
2018-09-15T08:06:04.911Z,19.22
2018-09-15T08:08:32.683Z,19.37
2018-09-15T08:11:00.471Z,19.50
2018-09-15T08:13:28.291Z,19.64
2018-09-15T08:15:56.227Z,19.88
2018-09-15T08:18:23.933Z,19.99
2018-09-15T08:20:51.699Z,20.18
2018-09-15T08:23:19.454Z,20.25
2018-09-15T08:25:47.360Z,20.46
2018-09-15T08:28:15.376Z,20.65
2018-09-15T08:30:43.799Z,20.28
2018-09-15T08:33:11.521Z,20.45
2018-09-15T08:35:39.250Z,20.88
2018-09-15T08:38:07.024Z,21.39
2018-09-15T08:40:34.736Z,21.54
2018-09-15T08:43:02.707Z,21.77
2018-09-15T08:45:30.835Z,21.56
2018-09-15T08:47:58.560Z,21.55
2018-09-15T08:50:26.359Z,21.76
2018-09-15T08:52:54.052Z,22.30
2018-09-15T08:55:21.787Z,22.83
2018-09-15T08:57:49.801Z,23.21
2018-09-15T09:00:17.983Z,22.81
2018-09-15T09:02:46.445Z,21.79
2018-09-15T09:05:14.495Z,22.27
2018-09-15T09:07:42.265Z,23.32
2018-09-15T09:10:10.513Z,23.11
2018-09-15T09:12:38.222Z,22.97
2018-09-15T09:15:06.005Z,23.26
2018-09-15T09:17:33.727Z,23.04
2018-09-15T09:20:01.824Z,22.89
2018-09-15T09:22:29.627Z,22.83
2018-09-15T09:24:57.686Z,23.56
2018-09-15T09:27:25.533Z,23.40
2018-09-15T09:29:53.367Z,22.50
2018-09-15T09:32:21.209Z,23.02
2018-09-15T09:34:48.977Z,23.18
2018-09-15T09:37:16.865Z,23.58
2018-09-15T09:39:44.742Z,23.29
2018-09-15T09:42:12.540Z,24.22
2018-09-15T09:44:40.315Z,23.96
2018-09-15T09:47:08.196Z,23.65
2018-09-15T09:49:35.886Z,24.14
2018-09-15T09:52:04.534Z,24.11
2018-09-15T09:54:32.275Z,23.52
2018-09-15T09:56:59.981Z,24.02
2018-09-15T09:59:27.770Z,23.59
2018-09-15T10:02:02.346Z,24.42
2018-09-15T10:04:30.799Z,25.05
2018-09-15T10:06:58.636Z,25.53
2018-09-15T10:09:26.392Z,24.99
2018-09-15T10:11:54.135Z,24.33
2018-09-15T10:14:21.927Z,25.10
2018-09-15T10:16:49.634Z,25.79
2018-09-15T10:19:17.511Z,24.51
2018-09-15T10:21:45.222Z,25.04
2018-09-15T10:24:13.035Z,26.17
2018-09-15T10:26:40.844Z,26.81
2018-09-15T10:29:08.650Z,26.30
2018-09-15T10:31:36.488Z,26.55
2018-09-15T10:34:04.263Z,26.08
2018-09-15T10:36:31.999Z,25.29
2018-09-15T10:38:59.781Z,25.18
2018-09-15T10:41:27.585Z,25.68
2018-09-15T10:43:55.384Z,25.80
2018-09-15T10:46:23.195Z,25.64
2018-09-15T10:48:51.044Z,25.63
2018-09-15T10:51:18.879Z,24.70
2018-09-15T10:53:46.568Z,25.32
2018-09-15T10:56:14.384Z,25.70
2018-09-15T10:58:42.259Z,26.16
2018-09-15T11:01:09.998Z,26.45
2018-09-15T11:03:37.755Z,26.06
2018-09-15T11:06:05.511Z,26.02
2018-09-15T11:08:33.324Z,25.73
2018-09-15T11:11:01.202Z,25.92
2018-09-15T11:13:29.335Z,25.93
2018-09-15T11:16:03.787Z,26.22
2018-09-15T11:18:31.523Z,26.28
2018-09-15T11:20:59.427Z,26.39
2018-09-15T11:23:27.179Z,26.99
2018-09-15T11:25:54.919Z,26.81
2018-09-15T11:28:22.659Z,26.54
2018-09-15T11:30:50.487Z,26.61
2018-09-15T11:33:18.211Z,26.39
2018-09-15T11:35:46.019Z,26.11
2018-09-15T11:38:13.751Z,25.96
2018-09-15T11:40:41.515Z,25.94
2018-09-15T11:43:09.459Z,25.53
2018-09-15T11:45:37.559Z,25.78
2018-09-15T11:48:05.575Z,25.16
2018-09-15T11:50:33.482Z,24.88
2018-09-15T11:53:01.267Z,25.81
2018-09-15T11:55:29.090Z,25.80
2018-09-15T11:57:56.822Z,25.96
2018-09-15T12:00:27.040Z,26.42
2018-09-15T12:02:54.730Z,26.70
2018-09-15T12:05:22.826Z,26.81
2018-09-15T12:08:02.552Z,26.82
2018-09-15T12:10:30.423Z,26.86
2018-09-15T12:12:58.271Z,26.57
2018-09-15T12:15:26.145Z,26.12
2018-09-15T12:17:53.845Z,25.43
2018-09-15T12:20:21.661Z,24.93
2018-09-15T12:22:49.343Z,25.90
2018-09-15T12:25:17.215Z,25.89
2018-09-15T12:27:45.149Z,25.71
2018-09-15T12:30:12.843Z,26.10
2018-09-15T12:32:40.618Z,25.51
2018-09-15T12:35:08.407Z,25.94
2018-09-15T12:37:36.214Z,25.08
2018-09-15T12:40:04.334Z,25.58
2018-09-15T12:42:32.047Z,25.31
2018-09-15T12:45:00.066Z,26.34
2018-09-15T12:47:27.787Z,26.22
2018-09-15T12:49:55.543Z,26.50
2018-09-15T12:52:23.288Z,26.63
2018-09-15T12:54:50.967Z,26.29
2018-09-15T12:57:18.778Z,26.37
2018-09-15T12:59:46.500Z,26.80
2018-09-15T13:02:14.197Z,27.03
2018-09-15T13:04:41.987Z,26.74
2018-09-15T13:07:09.736Z,27.54
2018-09-15T13:09:37.564Z,26.98
2018-09-15T13:12:05.404Z,26.65
2018-09-15T13:14:33.108Z,27.08
2018-09-15T13:17:00.860Z,26.09
2018-09-15T13:19:28.598Z,25.83
2018-09-15T13:21:56.312Z,26.17
2018-09-15T13:24:24.043Z,25.41
2018-09-15T13:26:51.776Z,26.02
2018-09-15T13:29:19.599Z,25.10
2018-09-15T13:31:47.395Z,25.90
2018-09-15T13:34:15.175Z,26.08
2018-09-15T13:36:42.921Z,26.17
2018-09-15T13:39:14.699Z,26.12
2018-09-15T13:41:42.378Z,26.03
2018-09-15T13:44:10.099Z,25.95
2018-09-15T13:46:37.853Z,25.58
2018-09-15T13:49:06.140Z,25.06
2018-09-15T13:51:33.978Z,25.37
2018-09-15T13:54:01.690Z,25.15
2018-09-15T13:56:29.420Z,25.09
2018-09-15T13:58:57.398Z,25.44
2018-09-15T14:01:25.094Z,25.68
2018-09-15T14:03:52.855Z,25.64
2018-09-15T14:06:20.909Z,25.44
2018-09-15T14:08:48.865Z,25.55
2018-09-15T14:11:16.572Z,25.61
2018-09-15T14:13:44.308Z,25.77
2018-09-15T14:16:12.505Z,25.56
2018-09-15T14:18:40.280Z,25.47
2018-09-15T14:21:08.202Z,25.13
2018-09-15T14:23:35.902Z,25.08
2018-09-15T14:26:03.641Z,24.84
2018-09-15T14:28:31.485Z,24.94
2018-09-15T14:30:59.177Z,24.85
2018-09-15T14:34:01.625Z,24.66
2018-09-15T14:36:34.266Z,24.50
2018-09-15T14:39:03.339Z,24.58
2018-09-15T14:41:31.135Z,24.28
2018-09-15T14:47:02.082Z,24.20
2018-09-15T14:49:29.857Z,24.38
2018-09-15T14:51:57.578Z,24.55
2018-09-15T14:54:25.324Z,24.42
2018-09-15T14:56:53.015Z,24.13
2018-09-15T14:59:20.792Z,23.81
2018-09-15T15:01:48.587Z,23.73
2018-09-15T15:04:16.306Z,23.84
2018-09-15T15:06:44.073Z,24.02
2018-09-15T15:09:11.898Z,23.96
2018-09-15T15:11:39.971Z,23.53
2018-09-15T15:14:08.234Z,23.36
2018-09-15T15:16:35.977Z,23.30
2018-09-15T15:19:03.747Z,23.20
2018-09-15T15:21:31.772Z,23.22
2018-09-15T15:23:59.535Z,23.10
2018-09-15T15:26:27.361Z,23.22
2018-09-15T15:28:55.035Z,23.24
2018-09-15T15:31:22.828Z,23.06
2018-09-15T15:33:50.691Z,22.98
2018-09-15T15:36:18.407Z,22.93
2018-09-15T15:38:46.117Z,22.84
2018-09-15T15:41:13.880Z,22.88
2018-09-15T15:43:42.046Z,22.84
2018-09-15T15:46:09.831Z,22.69
2018-09-15T15:48:37.559Z,22.63
2018-09-15T15:51:05.308Z,22.69
2018-09-15T15:53:33.058Z,22.54
2018-09-15T15:56:00.784Z,22.47
2018-09-15T15:58:28.588Z,22.41
2018-09-15T16:00:56.209Z,22.43
2018-09-15T16:03:24.413Z,22.54
2018-09-15T16:05:52.137Z,22.53
2018-09-15T16:08:19.831Z,22.50
2018-09-15T16:10:47.576Z,22.39
2018-09-15T16:13:15.330Z,22.32
2018-09-15T16:15:43.261Z,22.30
2018-09-15T16:18:11.076Z,22.20
2018-09-15T16:20:38.802Z,22.20
2018-09-15T16:23:06.889Z,22.12
2018-09-15T16:25:34.663Z,22.05
2018-09-15T16:28:02.784Z,22.01
2018-09-15T16:30:30.629Z,22.01
2018-09-15T16:32:58.279Z,21.99
2018-09-15T16:35:26.149Z,21.70
2018-09-15T16:37:54.023Z,21.67
2018-09-15T16:40:21.967Z,21.71
2018-09-15T16:42:49.877Z,21.71
2018-09-15T16:45:17.750Z,21.65
2018-09-15T16:47:45.508Z,21.68
2018-09-15T16:50:13.504Z,21.69
2018-09-15T16:52:41.337Z,21.65
2018-09-15T16:55:09.276Z,21.59
2018-09-15T16:57:37.026Z,21.49
2018-09-15T17:00:04.915Z,21.42
2018-09-15T17:02:32.692Z,21.38
2018-09-15T17:05:00.839Z,21.32
2018-09-15T17:07:28.691Z,21.24
2018-09-15T17:09:56.584Z,21.16
2018-09-15T17:12:24.387Z,21.15
2018-09-15T17:14:52.182Z,21.05
2018-09-15T17:17:20.062Z,20.99
2018-09-15T17:19:47.834Z,20.97
2018-09-15T17:22:15.787Z,20.91
2018-09-15T17:24:43.504Z,20.84
2018-09-15T17:27:11.335Z,20.71
2018-09-15T17:29:39.121Z,20.67
2018-09-15T17:32:07.276Z,20.65
2018-09-15T17:34:35.139Z,20.57
2018-09-15T17:37:04.508Z,20.49
2018-09-15T17:39:32.328Z,20.45
2018-09-15T17:42:00.166Z,20.33
2018-09-15T17:44:27.910Z,20.26
2018-09-15T17:46:55.708Z,20.15
2018-09-15T17:49:23.744Z,20.08
2018-09-15T17:51:52.499Z,20.00
2018-09-15T17:54:20.293Z,19.86
2018-09-15T17:56:48.137Z,19.76
2018-09-15T17:59:16.128Z,19.67
2018-09-15T18:01:44.102Z,19.59
2018-09-15T18:04:11.880Z,19.53
2018-09-15T18:06:39.764Z,19.48
2018-09-15T18:09:08.410Z,19.34
2018-09-15T18:11:36.448Z,19.23
2018-09-15T18:14:04.223Z,19.15
2018-09-15T18:16:32.130Z,19.05
2018-09-15T18:18:59.970Z,18.98
2018-09-15T18:21:27.716Z,18.91
2018-09-15T18:23:55.593Z,18.84
2018-09-15T18:26:23.384Z,18.82
2018-09-15T18:28:51.159Z,18.72
2018-09-15T18:31:18.990Z,18.65
2018-09-15T18:33:46.832Z,18.57
2018-09-15T18:36:14.574Z,18.50
2018-09-15T18:38:42.335Z,18.45
2018-09-15T18:41:10.129Z,18.39
2018-09-15T18:43:37.962Z,18.36
2018-09-15T18:46:05.751Z,18.35
2018-09-15T18:48:33.561Z,18.35
2018-09-15T18:51:01.768Z,18.21
2018-09-15T18:53:29.731Z,18.06
2018-09-15T18:55:57.589Z,17.98
2018-09-15T18:58:25.407Z,17.93
2018-09-15T19:00:53.201Z,17.86
2018-09-15T19:03:21.054Z,17.83
2018-09-15T19:05:48.852Z,17.85
2018-09-15T19:08:16.647Z,17.86
2018-09-15T19:10:44.531Z,17.87
2018-09-15T19:13:12.607Z,17.86
2018-09-15T19:15:40.710Z,17.86
2018-09-15T19:18:08.471Z,17.84
2018-09-15T19:20:36.280Z,17.81
2018-09-15T19:23:04.318Z,17.75
2018-09-15T19:25:32.047Z,17.71
2018-09-15T19:28:00.051Z,17.66
2018-09-15T19:30:27.808Z,17.62
2018-09-15T19:32:55.532Z,17.60
2018-09-15T19:35:23.637Z,17.56
2018-09-15T19:37:51.327Z,17.54
2018-09-15T19:40:19.717Z,17.48
2018-09-15T19:42:47.476Z,17.45
2018-09-15T19:45:15.380Z,17.39
2018-09-15T19:47:43.391Z,17.35
2018-09-15T19:50:11.263Z,17.32
2018-09-15T19:52:39.095Z,17.29
2018-09-15T19:55:07.024Z,17.26
2018-09-15T19:57:35.016Z,17.22
2018-09-15T20:00:02.919Z,17.24
2018-09-15T20:02:30.689Z,17.20
2018-09-15T20:04:58.617Z,17.15
2018-09-15T20:07:26.384Z,17.10
2018-09-15T20:09:54.244Z,17.08
2018-09-15T20:12:22.116Z,17.06
2018-09-15T20:14:50.000Z,17.03
2018-09-15T20:17:16.414Z,17.00
2018-09-15T20:19:42.958Z,16.98
2018-09-15T20:22:10.716Z,16.95
2018-09-15T20:24:38.844Z,16.97
2018-09-15T20:27:06.640Z,17.02
2018-09-15T20:29:34.462Z,16.98
2018-09-15T20:32:02.486Z,16.91
2018-09-15T20:34:30.371Z,16.93
2018-09-15T20:36:58.228Z,16.88
2018-09-15T20:39:25.999Z,16.81
2018-09-15T20:41:53.888Z,16.80
2018-09-15T20:44:21.682Z,16.82
2018-09-15T20:46:49.651Z,16.89
2018-09-15T20:49:17.482Z,16.89
2018-09-15T20:51:45.246Z,16.89
2018-09-15T20:54:13.066Z,16.84
2018-09-15T20:56:40.969Z,16.79
2018-09-15T20:59:08.693Z,16.79
2018-09-15T21:01:37.064Z,16.79
2018-09-15T21:04:04.869Z,16.77
2018-09-15T21:06:32.608Z,16.75
2018-09-15T21:09:00.346Z,16.71
2018-09-15T21:11:28.067Z,16.70
2018-09-15T21:13:55.762Z,16.70
2018-09-15T21:16:23.511Z,16.69
2018-09-15T21:18:51.282Z,16.68
2018-09-15T21:21:18.971Z,16.62
2018-09-15T21:23:46.700Z,16.61
2018-09-15T21:26:14.408Z,16.59
2018-09-15T21:28:42.154Z,16.63
2018-09-15T21:31:09.887Z,16.58
2018-09-15T21:33:37.597Z,16.52
2018-09-15T21:36:05.828Z,16.49
2018-09-15T21:38:33.561Z,16.50
2018-09-15T21:41:01.314Z,16.51
2018-09-15T21:43:29.118Z,16.50
2018-09-15T21:45:56.959Z,16.54
2018-09-15T21:48:24.692Z,16.57
2018-09-15T21:50:52.447Z,16.54
2018-09-15T21:53:20.175Z,16.49
2018-09-15T21:55:47.912Z,16.46
2018-09-15T21:58:15.621Z,16.40
2018-09-15T22:00:43.423Z,16.36
2018-09-15T22:03:11.195Z,16.38
2018-09-15T22:05:38.963Z,16.36
2018-09-15T22:08:06.703Z,16.34
2018-09-15T22:10:34.553Z,16.31
2018-09-15T22:13:02.369Z,16.30
2018-09-15T22:15:30.078Z,16.33
2018-09-15T22:17:58.331Z,16.30
2018-09-15T22:20:26.411Z,16.28
2018-09-15T22:22:54.152Z,16.27
2018-09-15T22:25:21.983Z,16.24
2018-09-15T22:27:49.775Z,16.22
2018-09-15T22:30:17.663Z,16.06
2018-09-15T22:32:45.464Z,16.08
2018-09-15T22:35:13.182Z,16.02
2018-09-15T22:37:40.975Z,16.02
2018-09-15T22:40:09.870Z,15.96
2018-09-15T22:42:37.595Z,15.94
2018-09-15T22:45:05.786Z,15.83
2018-09-15T22:47:33.623Z,15.77
2018-09-15T22:50:01.636Z,15.69
2018-09-15T22:52:29.387Z,15.63
2018-09-15T22:54:57.151Z,15.56
2018-09-15T22:57:24.896Z,15.54
2018-09-15T22:59:53.024Z,15.53
2018-09-15T23:02:20.719Z,15.54
2018-09-15T23:04:48.450Z,15.53
2018-09-15T23:07:16.340Z,15.59
2018-09-15T23:09:44.127Z,15.60
2018-09-15T23:12:11.822Z,15.66
2018-09-15T23:14:39.528Z,15.67
2018-09-15T23:17:07.272Z,15.65
2018-09-15T23:19:35.034Z,15.62
2018-09-15T23:22:02.848Z,15.52
2018-09-15T23:24:30.667Z,15.50
2018-09-15T23:26:58.379Z,15.43
2018-09-15T23:29:26.174Z,15.38
2018-09-15T23:31:53.909Z,15.39
2018-09-15T23:34:21.774Z,15.42
2018-09-15T23:36:49.842Z,15.46
2018-09-15T23:39:17.671Z,15.50
2018-09-15T23:41:45.419Z,15.47
2018-09-15T23:44:13.466Z,15.44
2018-09-15T23:46:41.235Z,15.39
2018-09-15T23:49:09.052Z,15.40
2018-09-15T23:51:37.006Z,15.38
2018-09-15T23:54:04.710Z,15.35
2018-09-15T23:56:32.509Z,15.23
2018-09-15T23:59:00.226Z,15.21
